sensor_id;sensor_type;location;lat;lon;timestamp;pressure;altitude;pressure_sealevel;temperature;humidity
23321;BME280;33376;51.306;4.752;2023-01-25T00:02:10;103962.31;;;1.81;nan
23321;BME280;33376;51.306;4.752;2023-01-25T00:04:35;103961.78;;;1.91;nan
23321;BME280;33376;51.306;4.752;2023-01-25T00:07:00;103954.28;;;2.03;nan
23321;BME280;33376;51.306;4.752;2023-01-25T00:09:26;103943.81;;;1.75;nan
23321;BME280;33376;51.306;4.752;2023-01-25T00:11:51;103947.25;;;1.72;nan
23321;BME280;33376;51.306;4.752;2023-01-25T00:14:17;103949.97;;;1.75;nan
23321;BME280;33376;51.306;4.752;2023-01-25T00:16:43;103945.59;;;1.76;nan
23321;BME280;33376;51.306;4.752;2023-01-25T00:19:08;103942.59;;;1.64;nan
23321;BME280;33376;51.306;4.752;2023-01-25T00:21:34;103954.78;;;1.63;nan
23321;BME280;33376;51.306;4.752;2023-01-25T00:23:59;103953.59;;;1.80;nan
23321;BME280;33376;51.306;4.752;2023-01-25T00:26:25;103953.13;;;1.93;nan
23321;BME280;33376;51.306;4.752;2023-01-25T00:28:53;103951.56;;;2.00;nan
23321;BME280;33376;51.306;4.752;2023-01-25T00:34:17;103932.78;;;2.13;nan
23321;BME280;33376;51.306;4.752;2023-01-25T00:36:54;103934.53;;;1.56;nan
23321;BME280;33376;51.306;4.752;2023-01-25T00:39:20;103929.16;;;1.52;nan
23321;BME280;33376;51.306;4.752;2023-01-25T00:41:46;103931.47;;;1.69;nan
23321;BME280;33376;51.306;4.752;2023-01-25T00:44:11;103930.56;;;1.69;nan
23321;BME280;33376;51.306;4.752;2023-01-25T00:46:36;103921.56;;;1.59;nan
23321;BME280;33376;51.306;4.752;2023-01-25T00:49:01;103929.41;;;1.59;nan
23321;BME280;33376;51.306;4.752;2023-01-25T00:51:27;103938.81;;;1.54;nan
23321;BME280;33376;51.306;4.752;2023-01-25T00:53:52;103943.53;;;1.39;nan
23321;BME280;33376;51.306;4.752;2023-01-25T00:56:17;103943.72;;;1.43;nan
23321;BME280;33376;51.306;4.752;2023-01-25T00:58:43;103949.25;;;1.26;nan
23321;BME280;33376;51.306;4.752;2023-01-25T01:01:08;103945.81;;;1.28;nan
23321;BME280;33376;51.306;4.752;2023-01-25T01:03:33;103936.38;;;1.32;nan
23321;BME280;33376;51.306;4.752;2023-01-25T01:06:03;103935.59;;;1.36;nan
23321;BME280;33376;51.306;4.752;2023-01-25T01:08:28;103942.25;;;1.52;nan
23321;BME280;33376;51.306;4.752;2023-01-25T01:11:01;103936.56;;;1.66;nan
23321;BME280;33376;51.306;4.752;2023-01-25T01:13:27;103940.34;;;1.76;nan
23321;BME280;33376;51.306;4.752;2023-01-25T01:15:53;103923.19;;;1.56;nan
23321;BME280;33376;51.306;4.752;2023-01-25T01:18:18;103919.72;;;1.57;nan
23321;BME280;33376;51.306;4.752;2023-01-25T01:20:47;103914.84;;;1.67;nan
23321;BME280;33376;51.306;4.752;2023-01-25T01:23:12;103918.53;;;1.74;nan
23321;BME280;33376;51.306;4.752;2023-01-25T01:25:38;103917.66;;;1.75;nan
23321;BME280;33376;51.306;4.752;2023-01-25T01:28:03;103913.44;;;1.78;nan
23321;BME280;33376;51.306;4.752;2023-01-25T01:30:28;103916.69;;;1.71;nan
23321;BME280;33376;51.306;4.752;2023-01-25T01:32:53;103907.81;;;1.66;nan
23321;BME280;33376;51.306;4.752;2023-01-25T01:35:19;103900.00;;;1.68;nan
23321;BME280;33376;51.306;4.752;2023-01-25T01:37:44;103913.47;;;1.52;nan
23321;BME280;33376;51.306;4.752;2023-01-25T01:40:12;103913.75;;;1.61;nan
23321;BME280;33376;51.306;4.752;2023-01-25T01:48:09;103907.94;;;1.69;nan
23321;BME280;33376;51.306;4.752;2023-01-25T01:50:35;103906.13;;;1.68;nan
23321;BME280;33376;51.306;4.752;2023-01-25T01:53:00;103896.38;;;1.63;nan
23321;BME280;33376;51.306;4.752;2023-01-25T01:55:26;103903.78;;;1.77;nan
23321;BME280;33376;51.306;4.752;2023-01-25T01:57:55;103912.09;;;1.63;nan
23321;BME280;33376;51.306;4.752;2023-01-25T02:00:23;103906.84;;;1.63;nan
23321;BME280;33376;51.306;4.752;2023-01-25T02:02:49;103913.88;;;1.65;nan
23321;BME280;33376;51.306;4.752;2023-01-25T02:05:20;103905.91;;;1.61;nan
23321;BME280;33376;51.306;4.752;2023-01-25T02:07:48;103900.44;;;1.53;nan
23321;BME280;33376;51.306;4.752;2023-01-25T02:10:14;103904.06;;;1.58;nan
23321;BME280;33376;51.306;4.752;2023-01-25T02:12:40;103904.28;;;1.64;nan
23321;BME280;33376;51.306;4.752;2023-01-25T02:15:06;103897.56;;;1.72;nan
23321;BME280;33376;51.306;4.752;2023-01-25T02:17:33;103897.47;;;1.69;nan
23321;BME280;33376;51.306;4.752;2023-01-25T02:22:26;103890.53;;;1.71;nan
23321;BME280;33376;51.306;4.752;2023-01-25T02:25:05;103889.31;;;1.60;nan
23321;BME280;33376;51.306;4.752;2023-01-25T02:27:31;103887.66;;;1.62;nan
23321;BME280;33376;51.306;4.752;2023-01-25T02:29:57;103885.22;;;1.68;nan
23321;BME280;33376;51.306;4.752;2023-01-25T02:32:23;103890.16;;;1.59;nan
23321;BME280;33376;51.306;4.752;2023-01-25T02:34:48;103881.78;;;1.69;nan
23321;BME280;33376;51.306;4.752;2023-01-25T02:37:13;103878.00;;;1.60;nan
23321;BME280;33376;51.306;4.752;2023-01-25T02:39:39;103874.00;;;1.72;nan
23321;BME280;33376;51.306;4.752;2023-01-25T02:42:05;103870.50;;;2.01;nan
23321;BME280;33376;51.306;4.752;2023-01-25T02:44:30;103867.84;;;2.00;nan
23321;BME280;33376;51.306;4.752;2023-01-25T02:46:56;103867.13;;;1.76;nan
23321;BME280;33376;51.306;4.752;2023-01-25T02:49:21;103860.34;;;1.82;nan
23321;BME280;33376;51.306;4.752;2023-01-25T02:51:48;103861.81;;;1.73;nan
23321;BME280;33376;51.306;4.752;2023-01-25T02:54:14;103864.19;;;1.65;nan
23321;BME280;33376;51.306;4.752;2023-01-25T02:56:40;103864.66;;;1.52;nan
23321;BME280;33376;51.306;4.752;2023-01-25T02:59:06;103872.63;;;1.57;nan
23321;BME280;33376;51.306;4.752;2023-01-25T03:01:32;103870.41;;;1.69;nan
23321;BME280;33376;51.306;4.752;2023-01-25T03:03:57;103867.97;;;1.75;nan
23321;BME280;33376;51.306;4.752;2023-01-25T03:06:23;103874.97;;;1.76;nan
23321;BME280;33376;51.306;4.752;2023-01-25T03:08:48;103872.34;;;1.76;nan
23321;BME280;33376;51.306;4.752;2023-01-25T03:11:14;103869.66;;;1.73;nan
23321;BME280;33376;51.306;4.752;2023-01-25T03:13:39;103864.28;;;1.68;nan
23321;BME280;33376;51.306;4.752;2023-01-25T03:16:05;103861.84;;;1.74;nan
23321;BME280;33376;51.306;4.752;2023-01-25T03:18:31;103864.38;;;1.71;nan
23321;BME280;33376;51.306;4.752;2023-01-25T03:21:02;103862.53;;;1.67;nan
23321;BME280;33376;51.306;4.752;2023-01-25T03:23:27;103853.81;;;1.68;nan
23321;BME280;33376;51.306;4.752;2023-01-25T03:25:53;103849.19;;;1.88;nan
23321;BME280;33376;51.306;4.752;2023-01-25T03:28:18;103851.13;;;1.65;nan
23321;BME280;33376;51.306;4.752;2023-01-25T03:30:43;103850.94;;;1.59;nan
23321;BME280;33376;51.306;4.752;2023-01-25T03:33:08;103841.78;;;1.73;nan
23321;BME280;33376;51.306;4.752;2023-01-25T03:35:34;103837.44;;;1.74;nan
23321;BME280;33376;51.306;4.752;2023-01-25T03:37:59;103828.34;;;1.61;nan
23321;BME280;33376;51.306;4.752;2023-01-25T03:40:24;103818.03;;;1.66;nan
23321;BME280;33376;51.306;4.752;2023-01-25T03:42:49;103817.25;;;1.70;nan
23321;BME280;33376;51.306;4.752;2023-01-25T03:45:16;103819.66;;;1.62;nan
23321;BME280;33376;51.306;4.752;2023-01-25T03:47:41;103814.50;;;1.65;nan
23321;BME280;33376;51.306;4.752;2023-01-25T03:50:07;103819.81;;;1.68;nan
23321;BME280;33376;51.306;4.752;2023-01-25T03:52:32;103816.44;;;1.71;nan
23321;BME280;33376;51.306;4.752;2023-01-25T03:55:03;103809.56;;;1.76;nan
23321;BME280;33376;51.306;4.752;2023-01-25T03:57:28;103808.84;;;1.80;nan
23321;BME280;33376;51.306;4.752;2023-01-25T03:59:53;103803.53;;;1.77;nan
23321;BME280;33376;51.306;4.752;2023-01-25T04:02:19;103809.03;;;1.87;nan
23321;BME280;33376;51.306;4.752;2023-01-25T04:04:44;103809.03;;;2.17;nan
23321;BME280;33376;51.306;4.752;2023-01-25T04:07:09;103798.22;;;1.74;nan
23321;BME280;33376;51.306;4.752;2023-01-25T04:09:34;103807.06;;;1.49;nan
23321;BME280;33376;51.306;4.752;2023-01-25T04:12:00;103804.59;;;1.55;nan
23321;BME280;33376;51.306;4.752;2023-01-25T04:14:25;103808.25;;;1.60;nan
23321;BME280;33376;51.306;4.752;2023-01-25T04:16:50;103810.00;;;1.31;nan
23321;BME280;33376;51.306;4.752;2023-01-25T04:19:15;103817.00;;;1.32;nan
23321;BME280;33376;51.306;4.752;2023-01-25T04:21:40;103817.78;;;1.02;nan
23321;BME280;33376;51.306;4.752;2023-01-25T04:24:06;103826.88;;;0.88;nan
23321;BME280;33376;51.306;4.752;2023-01-25T04:26:31;103833.84;;;0.87;nan
23321;BME280;33376;51.306;4.752;2023-01-25T04:28:56;103834.56;;;1.36;nan
23321;BME280;33376;51.306;4.752;2023-01-25T04:31:21;103832.50;;;1.26;nan
23321;BME280;33376;51.306;4.752;2023-01-25T04:33:47;103834.38;;;1.30;nan
23321;BME280;33376;51.306;4.752;2023-01-25T04:36:18;103834.47;;;1.33;nan
23321;BME280;33376;51.306;4.752;2023-01-25T04:38:43;103832.25;;;1.47;nan
23321;BME280;33376;51.306;4.752;2023-01-25T04:41:09;103827.75;;;1.41;nan
23321;BME280;33376;51.306;4.752;2023-01-25T04:43:35;103827.69;;;1.40;nan
23321;BME280;33376;51.306;4.752;2023-01-25T04:46:00;103830.41;;;1.43;nan
23321;BME280;33376;51.306;4.752;2023-01-25T04:48:26;103829.56;;;1.72;nan
23321;BME280;33376;51.306;4.752;2023-01-25T04:50:55;103821.19;;;1.56;nan
23321;BME280;33376;51.306;4.752;2023-01-25T04:53:20;103825.00;;;1.67;nan
23321;BME280;33376;51.306;4.752;2023-01-25T04:55:45;103820.69;;;1.11;nan
23321;BME280;33376;51.306;4.752;2023-01-25T04:58:13;103823.75;;;1.24;nan
23321;BME280;33376;51.306;4.752;2023-01-25T05:00:39;103825.16;;;1.15;nan
23321;BME280;33376;51.306;4.752;2023-01-25T05:03:04;103819.09;;;1.16;nan
23321;BME280;33376;51.306;4.752;2023-01-25T05:05:29;103816.59;;;1.19;nan
23321;BME280;33376;51.306;4.752;2023-01-25T05:07:54;103814.81;;;1.18;nan
23321;BME280;33376;51.306;4.752;2023-01-25T05:10:20;103815.44;;;1.39;nan
23321;BME280;33376;51.306;4.752;2023-01-25T05:12:47;103808.88;;;1.23;nan
23321;BME280;33376;51.306;4.752;2023-01-25T05:15:12;103815.00;;;1.24;nan
23321;BME280;33376;51.306;4.752;2023-01-25T05:17:37;103809.88;;;1.27;nan
23321;BME280;33376;51.306;4.752;2023-01-25T05:20:03;103810.78;;;1.57;nan
23321;BME280;33376;51.306;4.752;2023-01-25T05:22:29;103807.31;;;1.58;nan
23321;BME280;33376;51.306;4.752;2023-01-25T05:24:54;103798.50;;;1.26;nan
23321;BME280;33376;51.306;4.752;2023-01-25T05:27:20;103798.38;;;1.22;nan
23321;BME280;33376;51.306;4.752;2023-01-25T05:29:45;103800.91;;;1.19;nan
23321;BME280;33376;51.306;4.752;2023-01-25T05:32:12;103782.88;;;1.28;nan
23321;BME280;33376;51.306;4.752;2023-01-25T05:34:38;103781.56;;;1.72;nan
23321;BME280;33376;51.306;4.752;2023-01-25T05:37:04;103778.03;;;1.40;nan
23321;BME280;33376;51.306;4.752;2023-01-25T05:39:29;103771.69;;;1.32;nan
23321;BME280;33376;51.306;4.752;2023-01-25T05:41:55;103773.31;;;1.28;nan
23321;BME280;33376;51.306;4.752;2023-01-25T05:44:20;103776.75;;;1.26;nan
23321;BME280;33376;51.306;4.752;2023-01-25T05:46:46;103777.66;;;1.28;nan
23321;BME280;33376;51.306;4.752;2023-01-25T05:49:11;103772.38;;;1.26;nan
23321;BME280;33376;51.306;4.752;2023-01-25T05:51:37;103766.19;;;1.52;nan
23321;BME280;33376;51.306;4.752;2023-01-25T05:54:03;103765.53;;;1.30;nan
23321;BME280;33376;51.306;4.752;2023-01-25T05:56:28;103768.78;;;1.23;nan
23321;BME280;33376;51.306;4.752;2023-01-25T05:58:54;103772.34;;;1.25;nan
23321;BME280;33376;51.306;4.752;2023-01-25T06:01:20;103775.84;;;1.25;nan
23321;BME280;33376;51.306;4.752;2023-01-25T06:03:45;103770.56;;;1.24;nan
23321;BME280;33376;51.306;4.752;2023-01-25T06:06:11;103775.28;;;1.35;nan
23321;BME280;33376;51.306;4.752;2023-01-25T06:08:36;103768.59;;;1.17;nan
23321;BME280;33376;51.306;4.752;2023-01-25T06:11:07;103770.84;;;1.33;nan
23321;BME280;33376;51.306;4.752;2023-01-25T06:13:33;103766.13;;;1.21;nan
23321;BME280;33376;51.306;4.752;2023-01-25T06:15:58;103766.25;;;1.24;nan
23321;BME280;33376;51.306;4.752;2023-01-25T06:18:24;103768.72;;;1.49;nan
23321;BME280;33376;51.306;4.752;2023-01-25T06:20:50;103761.69;;;1.19;nan
23321;BME280;33376;51.306;4.752;2023-01-25T06:23:15;103759.66;;;1.09;nan
23321;BME280;33376;51.306;4.752;2023-01-25T06:25:40;103764.09;;;1.11;nan
23321;BME280;33376;51.306;4.752;2023-01-25T06:28:05;103768.72;;;1.21;nan
23321;BME280;33376;51.306;4.752;2023-01-25T06:30:31;103768.66;;;1.18;nan
23321;BME280;33376;51.306;4.752;2023-01-25T06:32:59;103773.00;;;1.18;nan
23321;BME280;33376;51.306;4.752;2023-01-25T06:35:25;103766.13;;;1.21;nan
23321;BME280;33376;51.306;4.752;2023-01-25T06:37:50;103773.75;;;1.42;nan
23321;BME280;33376;51.306;4.752;2023-01-25T06:40:18;103770.84;;;1.33;nan
23321;BME280;33376;51.306;4.752;2023-01-25T06:42:43;103770.66;;;1.27;nan
23321;BME280;33376;51.306;4.752;2023-01-25T06:45:09;103768.00;;;1.25;nan
23321;BME280;33376;51.306;4.752;2023-01-25T06:47:34;103776.06;;;1.33;nan
23321;BME280;33376;51.306;4.752;2023-01-25T06:49:59;103777.38;;;0.91;nan
23321;BME280;33376;51.306;4.752;2023-01-25T06:52:25;103778.25;;;0.65;nan
23321;BME280;33376;51.306;4.752;2023-01-25T06:54:50;103779.19;;;0.67;nan
23321;BME280;33376;51.306;4.752;2023-01-25T06:57:15;103783.44;;;0.63;nan
23321;BME280;33376;51.306;4.752;2023-01-25T06:59:40;103783.81;;;0.75;nan
23321;BME280;33376;51.306;4.752;2023-01-25T07:02:05;103800.66;;;0.58;nan
23321;BME280;33376;51.306;4.752;2023-01-25T07:04:31;103790.88;;;0.53;nan
23321;BME280;33376;51.306;4.752;2023-01-25T07:06:56;103796.47;;;0.37;nan
23321;BME280;33376;51.306;4.752;2023-01-25T07:09:21;103800.97;;;0.42;nan
23321;BME280;33376;51.306;4.752;2023-01-25T07:11:51;103803.22;;;0.57;nan
23321;BME280;33376;51.306;4.752;2023-01-25T07:14:17;103800.81;;;0.63;nan
23321;BME280;33376;51.306;4.752;2023-01-25T07:16:42;103806.97;;;0.65;nan
23321;BME280;33376;51.306;4.752;2023-01-25T07:19:08;103802.56;;;0.62;nan
23321;BME280;33376;51.306;4.752;2023-01-25T07:21:34;103811.47;;;0.44;nan
23321;BME280;33376;51.306;4.752;2023-01-25T07:24:00;103818.75;;;0.52;nan
23321;BME280;33376;51.306;4.752;2023-01-25T07:26:26;103818.38;;;0.67;nan
23321;BME280;33376;51.306;4.752;2023-01-25T07:28:52;103818.38;;;0.67;nan
23321;BME280;33376;51.306;4.752;2023-01-25T07:31:17;103805.97;;;0.61;nan
23321;BME280;33376;51.306;4.752;2023-01-25T07:33:46;103815.53;;;0.61;nan
23321;BME280;33376;51.306;4.752;2023-01-25T07:36:12;103806.09;;;0.64;nan
23321;BME280;33376;51.306;4.752;2023-01-25T07:38:37;103811.31;;;0.64;nan
23321;BME280;33376;51.306;4.752;2023-01-25T07:41:03;103808.59;;;0.61;nan
23321;BME280;33376;51.306;4.752;2023-01-25T07:43:28;103815.75;;;0.67;nan
23321;BME280;33376;51.306;4.752;2023-01-25T07:45:58;103808.03;;;0.70;nan
23321;BME280;33376;51.306;4.752;2023-01-25T07:48:24;103809.69;;;0.68;nan
23321;BME280;33376;51.306;4.752;2023-01-25T07:50:49;103813.91;;;0.64;nan
23321;BME280;33376;51.306;4.752;2023-01-25T07:53:34;103809.28;;;0.56;nan
23321;BME280;33376;51.306;4.752;2023-01-25T07:55:59;103810.47;;;0.40;nan
23321;BME280;33376;51.306;4.752;2023-01-25T07:58:24;103803.41;;;0.36;nan
23321;BME280;33376;51.306;4.752;2023-01-25T08:00:50;103806.34;;;0.47;nan
23321;BME280;33376;51.306;4.752;2023-01-25T08:03:15;103805.75;;;0.54;nan
23321;BME280;33376;51.306;4.752;2023-01-25T08:05:43;103807.19;;;0.46;nan
23321;BME280;33376;51.306;4.752;2023-01-25T08:08:09;103800.28;;;0.46;nan
23321;BME280;33376;51.306;4.752;2023-01-25T08:10:34;103794.06;;;0.43;nan
23321;BME280;33376;51.306;4.752;2023-01-25T08:12:59;103791.69;;;0.50;nan
23321;BME280;33376;51.306;4.752;2023-01-25T08:15:24;103792.84;;;0.58;nan
23321;BME280;33376;51.306;4.752;2023-01-25T08:17:49;103791.31;;;0.65;nan
23321;BME280;33376;51.306;4.752;2023-01-25T08:20:15;103799.19;;;0.66;nan
23321;BME280;33376;51.306;4.752;2023-01-25T08:22:40;103801.00;;;0.69;nan
23321;BME280;33376;51.306;4.752;2023-01-25T08:25:06;103796.63;;;0.68;nan
23321;BME280;33376;51.306;4.752;2023-01-25T08:27:31;103796.91;;;0.50;nan
23321;BME280;33376;51.306;4.752;2023-01-25T08:29:56;103792.63;;;0.52;nan
23321;BME280;33376;51.306;4.752;2023-01-25T08:32:21;103789.03;;;0.49;nan
23321;BME280;33376;51.306;4.752;2023-01-25T08:34:47;103777.69;;;0.48;nan
23321;BME280;33376;51.306;4.752;2023-01-25T08:37:12;103782.50;;;0.36;nan
23321;BME280;33376;51.306;4.752;2023-01-25T08:39:37;103792.38;;;0.20;nan
23321;BME280;33376;51.306;4.752;2023-01-25T08:42:02;103790.75;;;0.23;nan
23321;BME280;33376;51.306;4.752;2023-01-25T08:44:28;103794.41;;;0.28;nan
23321;BME280;33376;51.306;4.752;2023-01-25T08:46:53;103794.25;;;0.24;nan
23321;BME280;33376;51.306;4.752;2023-01-25T08:49:18;103792.09;;;0.37;nan
23321;BME280;33376;51.306;4.752;2023-01-25T08:51:45;103791.69;;;0.50;nan
23321;BME280;33376;51.306;4.752;2023-01-25T08:54:11;103788.28;;;0.28;nan
23321;BME280;33376;51.306;4.752;2023-01-25T08:56:37;103790.78;;;0.50;nan
23321;BME280;33376;51.306;4.752;2023-01-25T08:59:03;103785.28;;;0.67;nan
23321;BME280;33376;51.306;4.752;2023-01-25T09:01:28;103789.84;;;0.73;nan
23321;BME280;33376;51.306;4.752;2023-01-25T09:03:53;103800.38;;;0.76;nan
23321;BME280;33376;51.306;4.752;2023-01-25T09:06:18;103793.72;;;0.85;nan
23321;BME280;33376;51.306;4.752;2023-01-25T09:08:44;103783.00;;;0.76;nan
23321;BME280;33376;51.306;4.752;2023-01-25T09:11:11;103781.56;;;0.86;nan
23321;BME280;33376;51.306;4.752;2023-01-25T09:13:37;103770.66;;;0.46;nan
23321;BME280;33376;51.306;4.752;2023-01-25T09:16:03;103761.06;;;0.45;nan
23321;BME280;33376;51.306;4.752;2023-01-25T09:18:29;103770.34;;;0.62;nan
23321;BME280;33376;51.306;4.752;2023-01-25T09:20:54;103758.00;;;0.84;nan
23321;BME280;33376;51.306;4.752;2023-01-25T09:23:19;103757.31;;;0.63;nan
23321;BME280;33376;51.306;4.752;2023-01-25T09:25:47;103760.16;;;0.71;nan
23321;BME280;33376;51.306;4.752;2023-01-25T09:28:12;103755.25;;;0.53;nan
23321;BME280;33376;51.306;4.752;2023-01-25T09:30:38;103745.69;;;0.54;nan
23321;BME280;33376;51.306;4.752;2023-01-25T09:33:03;103746.13;;;0.41;nan
23321;BME280;33376;51.306;4.752;2023-01-25T09:35:29;103747.13;;;0.44;nan
23321;BME280;33376;51.306;4.752;2023-01-25T09:37:55;103749.47;;;0.37;nan
23321;BME280;33376;51.306;4.752;2023-01-25T09:40:20;103742.09;;;0.50;nan
23321;BME280;33376;51.306;4.752;2023-01-25T09:42:56;103748.78;;;0.42;nan
23321;BME280;33376;51.306;4.752;2023-01-25T09:45:33;103750.31;;;0.36;nan
23321;BME280;33376;51.306;4.752;2023-01-25T09:48:02;103744.41;;;0.41;nan
23321;BME280;33376;51.306;4.752;2023-01-25T09:50:33;103747.59;;;0.33;nan
23321;BME280;33376;51.306;4.752;2023-01-25T09:53:05;103745.16;;;0.64;nan
23321;BME280;33376;51.306;4.752;2023-01-25T09:55:34;103747.47;;;0.55;nan
23321;BME280;33376;51.306;4.752;2023-01-25T09:58:00;103748.84;;;0.44;nan
23321;BME280;33376;51.306;4.752;2023-01-25T10:02:53;103755.56;;;0.62;nan
23321;BME280;33376;51.306;4.752;2023-01-25T10:05:21;103742.59;;;0.65;nan
23321;BME280;33376;51.306;4.752;2023-01-25T10:10:40;103742.94;;;0.76;nan
23321;BME280;33376;51.306;4.752;2023-01-25T10:13:13;103729.56;;;0.65;nan
23321;BME280;33376;51.306;4.752;2023-01-25T10:15:40;103724.19;;;0.89;nan
23321;BME280;33376;51.306;4.752;2023-01-25T10:18:22;103719.53;;;0.79;nan
23321;BME280;33376;51.306;4.752;2023-01-25T10:20:55;103720.50;;;0.82;nan
23321;BME280;33376;51.306;4.752;2023-01-25T10:28:41;103710.59;;;0.99;nan
23321;BME280;33376;51.306;4.752;2023-01-25T10:33:36;103700.25;;;0.75;nan
23321;BME280;33376;51.306;4.752;2023-01-25T10:36:04;103691.69;;;0.79;nan
23321;BME280;33376;51.306;4.752;2023-01-25T10:38:39;103680.53;;;0.85;nan
23321;BME280;33376;51.306;4.752;2023-01-25T10:41:17;103671.31;;;1.25;nan
23321;BME280;33376;51.306;4.752;2023-01-25T10:43:43;103663.00;;;1.10;nan
23321;BME280;33376;51.306;4.752;2023-01-25T10:46:19;103663.66;;;1.02;nan
23321;BME280;33376;51.306;4.752;2023-01-25T10:48:46;103653.34;;;1.06;nan
23321;BME280;33376;51.306;4.752;2023-01-25T10:51:23;103647.63;;;1.19;nan
23321;BME280;33376;51.306;4.752;2023-01-25T10:53:57;103630.88;;;1.13;nan
23321;BME280;33376;51.306;4.752;2023-01-25T10:56:23;103628.41;;;1.17;nan
23321;BME280;33376;51.306;4.752;2023-01-25T10:58:50;103621.25;;;1.12;nan
23321;BME280;33376;51.306;4.752;2023-01-25T11:03:49;103606.75;;;1.23;nan
23321;BME280;33376;51.306;4.752;2023-01-25T11:06:15;103603.28;;;1.22;nan
23321;BME280;33376;51.306;4.752;2023-01-25T11:08:52;103586.88;;;1.28;nan
23321;BME280;33376;51.306;4.752;2023-01-25T11:11:24;103575.34;;;1.21;nan
23321;BME280;33376;51.306;4.752;2023-01-25T11:13:51;103572.97;;;0.98;nan
23321;BME280;33376;51.306;4.752;2023-01-25T11:16:22;103574.03;;;1.04;nan
23321;BME280;33376;51.306;4.752;2023-01-25T11:18:50;103570.88;;;0.86;nan
23321;BME280;33376;51.306;4.752;2023-01-25T11:21:17;103559.69;;;0.90;nan
23321;BME280;33376;51.306;4.752;2023-01-25T11:24:31;103553.28;;;1.10;nan
23321;BME280;33376;51.306;4.752;2023-01-25T11:26:33;103536.84;;;1.14;nan
23321;BME280;33376;51.306;4.752;2023-01-25T11:29:21;103524.78;;;1.18;nan
23321;BME280;33376;51.306;4.752;2023-01-25T11:31:49;103512.19;;;1.37;nan
23321;BME280;33376;51.306;4.752;2023-01-25T11:34:16;103500.84;;;1.35;nan
23321;BME280;33376;51.306;4.752;2023-01-25T11:39:33;103478.09;;;1.33;nan
23321;BME280;33376;51.306;4.752;2023-01-25T11:42:20;103467.53;;;1.28;nan
23321;BME280;33376;51.306;4.752;2023-01-25T12:05:25;103397.34;;;1.43;nan
23321;BME280;33376;51.306;4.752;2023-01-25T12:13:02;103368.94;;;1.59;nan
23321;BME280;33376;51.306;4.752;2023-01-25T12:16:04;103353.88;;;1.48;nan
23321;BME280;33376;51.306;4.752;2023-01-25T12:18:37;103353.84;;;1.47;nan
23321;BME280;33376;51.306;4.752;2023-01-25T12:31:57;103327.81;;;1.13;nan
23321;BME280;33376;51.306;4.752;2023-01-25T12:34:28;103314.25;;;1.29;nan
23321;BME280;33376;51.306;4.752;2023-01-25T12:36:54;103309.44;;;1.48;nan
23321;BME280;33376;51.306;4.752;2023-01-25T12:39:26;103302.56;;;1.52;nan
23321;BME280;33376;51.306;4.752;2023-01-25T12:41:57;103294.00;;;1.59;nan
23321;BME280;33376;51.306;4.752;2023-01-25T12:44:24;103283.72;;;1.68;nan
23321;BME280;33376;51.306;4.752;2023-01-25T12:46:54;103259.25;;;1.66;nan
23321;BME280;33376;51.306;4.752;2023-01-25T12:49:24;103254.97;;;1.68;nan
23321;BME280;33376;51.306;4.752;2023-01-25T12:51:52;103237.50;;;1.66;nan
23321;BME280;33376;51.306;4.752;2023-01-25T12:54:21;103232.06;;;1.57;nan
23321;BME280;33376;51.306;4.752;2023-01-25T12:59:26;103232.72;;;1.45;nan
23321;BME280;33376;51.306;4.752;2023-01-25T13:01:55;103230.44;;;1.63;nan
23321;BME280;33376;51.306;4.752;2023-01-25T13:09:42;103217.34;;;1.62;nan
23321;BME280;33376;51.306;4.752;2023-01-25T13:12:09;103209.59;;;1.66;nan
23321;BME280;33376;51.306;4.752;2023-01-25T13:14:36;103204.00;;;1.93;nan
23321;BME280;33376;51.306;4.752;2023-01-25T13:22:01;103190.97;;;1.49;nan
23321;BME280;33376;51.306;4.752;2023-01-25T13:24:28;103192.56;;;1.86;nan
23321;BME280;33376;51.306;4.752;2023-01-25T13:31:56;103167.59;;;1.57;nan
23321;BME280;33376;51.306;4.752;2023-01-25T13:36:59;103137.28;;;1.68;nan
23321;BME280;33376;51.306;4.752;2023-01-25T13:42:02;103133.72;;;1.20;nan
23321;BME280;33376;51.306;4.752;2023-01-25T13:44:29;103141.78;;;1.29;nan
23321;BME280;33376;51.306;4.752;2023-01-25T13:46:59;103143.69;;;1.39;nan
23321;BME280;33376;51.306;4.752;2023-01-25T13:49:46;103145.88;;;1.61;nan
23321;BME280;33376;51.306;4.752;2023-01-25T13:52:18;103151.69;;;1.45;nan
23321;BME280;33376;51.306;4.752;2023-01-25T13:54:44;103158.03;;;1.59;nan
23321;BME280;33376;51.306;4.752;2023-01-25T13:57:14;103159.78;;;1.15;nan
23321;BME280;33376;51.306;4.752;2023-01-25T13:59:39;103160.06;;;1.29;nan
23321;BME280;33376;51.306;4.752;2023-01-25T14:02:10;103163.56;;;1.31;nan
23321;BME280;33376;51.306;4.752;2023-01-25T14:04:37;103168.13;;;1.41;nan
23321;BME280;33376;51.306;4.752;2023-01-25T14:07:03;103171.63;;;1.41;nan
23321;BME280;33376;51.306;4.752;2023-01-25T14:09:33;103169.91;;;1.42;nan
23321;BME280;33376;51.306;4.752;2023-01-25T14:12:00;103162.91;;;1.41;nan
23321;BME280;33376;51.306;4.752;2023-01-25T14:19:26;103155.28;;;1.52;nan
23321;BME280;33376;51.306;4.752;2023-01-25T14:22:11;103148.09;;;1.40;nan
23321;BME280;33376;51.306;4.752;2023-01-25T14:24:37;103149.16;;;1.51;nan
23321;BME280;33376;51.306;4.752;2023-01-25T14:27:03;103153.41;;;1.44;nan
23321;BME280;33376;51.306;4.752;2023-01-25T14:29:28;103154.19;;;1.40;nan
23321;BME280;33376;51.306;4.752;2023-01-25T14:31:53;103156.19;;;1.53;nan
23321;BME280;33376;51.306;4.752;2023-01-25T14:34:19;103150.13;;;1.55;nan
23321;BME280;33376;51.306;4.752;2023-01-25T14:36:45;103146.44;;;1.45;nan
23321;BME280;33376;51.306;4.752;2023-01-25T14:39:24;103146.63;;;1.54;nan
23321;BME280;33376;51.306;4.752;2023-01-25T14:41:51;103144.59;;;1.39;nan
23321;BME280;33376;51.306;4.752;2023-01-25T14:44:18;103136.59;;;1.32;nan
23321;BME280;33376;51.306;4.752;2023-01-25T14:46:44;103131.91;;;1.16;nan
23321;BME280;33376;51.306;4.752;2023-01-25T14:49:16;103131.06;;;1.17;nan
23321;BME280;33376;51.306;4.752;2023-01-25T14:54:18;103130.41;;;1.27;nan
23321;BME280;33376;51.306;4.752;2023-01-25T14:56:48;103138.28;;;1.28;nan
23321;BME280;33376;51.306;4.752;2023-01-25T14:59:25;103135.59;;;1.25;nan